createdAt,value
2022-10-11T00:02:02.056Z,6.90
2022-10-11T00:04:28.563Z,6.35
2022-10-11T00:06:55.105Z,7.55
2022-10-11T00:09:21.707Z,7.75
2022-10-11T00:11:48.243Z,6.72
2022-10-11T00:14:14.896Z,8.57
2022-10-11T00:16:44.515Z,6.97
2022-10-11T00:19:11.543Z,8.00
2022-10-11T00:21:38.183Z,7.43
2022-10-11T00:24:05.509Z,7.05
2022-10-11T00:26:32.159Z,6.70
2022-10-11T00:28:58.794Z,7.35
2022-10-11T00:31:25.482Z,7.50
2022-10-11T00:33:53.797Z,7.90
2022-10-11T00:36:20.883Z,8.77
2022-10-11T00:38:47.495Z,7.70
2022-10-11T00:41:15.002Z,8.20
2022-10-11T00:43:42.119Z,9.23
2022-10-11T00:46:17.779Z,9.00
2022-10-11T00:49:07.465Z,7.75
2022-10-11T00:51:41.553Z,7.75
2022-10-11T00:54:13.727Z,8.63
2022-10-11T00:56:43.976Z,8.90
2022-10-11T00:59:19.055Z,8.85
2022-10-11T01:01:45.802Z,8.27
2022-10-11T01:04:12.498Z,10.77
2022-10-11T01:06:40.222Z,9.02
2022-10-11T01:09:07.083Z,11.55
2022-10-11T01:11:37.796Z,8.70
2022-10-11T01:14:29.698Z,8.43
2022-10-11T01:17:13.143Z,7.95
2022-10-11T01:20:15.990Z,9.20
2022-10-11T01:22:57.657Z,8.70
2022-10-11T01:25:36.333Z,8.57
2022-10-11T01:28:11.887Z,7.68
2022-10-11T01:30:38.905Z,9.60
2022-10-11T01:33:25.872Z,9.70
2022-10-11T01:36:04.358Z,8.43
2022-10-11T01:38:51.723Z,9.77
2022-10-11T01:41:27.974Z,8.60
2022-10-11T01:44:00.012Z,9.32
2022-10-11T01:46:28.606Z,9.48
2022-10-11T01:48:57.767Z,9.07
2022-10-11T01:51:31.698Z,9.85
2022-10-11T01:54:23.144Z,10.07
2022-10-11T01:57:10.825Z,9.50
2022-10-11T02:00:28.768Z,10.07
2022-10-11T02:03:12.395Z,9.88
2022-10-11T02:05:55.733Z,9.90
2022-10-11T02:08:31.231Z,9.77
2022-10-11T02:11:13.420Z,10.90
2022-10-11T02:13:44.540Z,11.02
2022-10-11T02:16:14.595Z,10.13
2022-10-11T02:18:50.188Z,11.15
2022-10-11T02:21:20.290Z,9.52
2022-10-11T02:24:06.454Z,9.65
2022-10-11T02:26:35.230Z,10.60
2022-10-11T02:29:06.512Z,10.25
2022-10-11T02:31:35.932Z,10.25
2022-10-11T02:34:33.576Z,10.65
2022-10-11T02:37:11.994Z,10.07
2022-10-11T02:40:01.871Z,10.65
2022-10-11T02:42:37.224Z,9.25
2022-10-11T02:45:11.188Z,10.40
2022-10-11T02:47:38.636Z,10.88
2022-10-11T02:50:05.783Z,10.35
2022-10-11T02:52:32.324Z,10.00
2022-10-11T02:54:58.884Z,11.45
2022-10-11T02:57:25.544Z,10.32
2022-10-11T02:59:52.246Z,10.55
2022-10-11T03:02:18.880Z,9.25
2022-10-11T03:04:45.558Z,10.43
2022-10-11T03:07:12.160Z,10.43
2022-10-11T03:09:38.851Z,11.15
2022-10-11T03:12:05.531Z,10.52
2022-10-11T03:14:32.117Z,10.40
2022-10-11T03:17:17.340Z,10.80
2022-10-11T03:19:47.638Z,10.40
2022-10-11T03:22:14.327Z,10.88
2022-10-11T03:24:40.934Z,10.38
2022-10-11T03:27:07.717Z,10.45
2022-10-11T03:29:34.366Z,9.50
2022-10-11T03:32:00.928Z,10.13
2022-10-11T03:34:27.509Z,9.30
2022-10-11T03:36:54.096Z,10.07
2022-10-11T03:39:20.965Z,10.50
2022-10-11T03:41:47.679Z,11.07
2022-10-11T03:44:14.230Z,9.85
2022-10-11T03:46:40.873Z,10.05
2022-10-11T03:49:07.514Z,10.85
2022-10-11T03:51:34.225Z,10.27
2022-10-11T03:54:03.985Z,10.05
2022-10-11T03:56:30.595Z,9.70
2022-10-11T03:58:57.137Z,10.15
2022-10-11T04:01:23.763Z,10.63
2022-10-11T04:03:50.316Z,10.82
2022-10-11T04:06:16.831Z,9.93
2022-10-11T04:08:43.368Z,9.85
2022-10-11T04:11:09.859Z,10.30
2022-10-11T04:13:36.425Z,10.88
2022-10-11T04:16:03.400Z,10.88
2022-10-11T04:18:30.178Z,9.88
2022-10-11T04:20:56.720Z,10.27
2022-10-11T04:23:23.210Z,9.82
2022-10-11T04:25:49.688Z,9.73
2022-10-11T04:28:16.288Z,10.32
2022-10-11T04:30:43.004Z,9.73
2022-10-11T04:33:11.636Z,9.60
2022-10-11T04:35:38.187Z,10.48
2022-10-11T04:38:04.854Z,14.20
2022-10-11T04:40:31.840Z,10.98
2022-10-11T04:42:58.796Z,9.48
2022-10-11T04:45:25.383Z,10.65
2022-10-11T04:47:52.340Z,9.90
2022-10-11T04:50:19.082Z,10.43
2022-10-11T04:52:45.646Z,10.45
2022-10-11T04:55:12.308Z,9.70
2022-10-11T04:57:38.903Z,10.23
2022-10-11T05:00:06.130Z,9.93
2022-10-11T05:02:32.805Z,9.88
2022-10-11T05:04:59.877Z,11.10
2022-10-11T05:07:26.415Z,9.60
2022-10-11T05:09:53.032Z,9.60
2022-10-11T05:12:20.113Z,10.68
2022-10-11T05:14:46.671Z,10.02
2022-10-11T05:17:13.310Z,10.10
2022-10-11T05:19:39.892Z,10.00
2022-10-11T05:22:06.442Z,10.60
2022-10-11T05:24:33.176Z,9.23
2022-10-11T05:27:03.178Z,11.15
2022-10-11T05:29:30.105Z,10.25
2022-10-11T05:31:56.622Z,10.52
2022-10-11T05:34:23.208Z,10.80
2022-10-11T05:36:49.847Z,11.50
2022-10-11T05:39:16.339Z,10.93
2022-10-11T05:41:42.851Z,10.48
2022-10-11T05:44:09.377Z,12.55
2022-10-11T05:46:35.928Z,10.88
2022-10-11T05:49:02.492Z,10.43
2022-10-11T05:51:29.039Z,10.93
2022-10-11T05:53:55.575Z,10.52
2022-10-11T05:56:24.637Z,10.25
2022-10-11T05:58:52.104Z,10.35
2022-10-11T06:01:25.147Z,10.45
2022-10-11T06:03:52.536Z,11.68
2022-10-11T06:06:19.659Z,10.05
2022-10-11T06:08:46.776Z,9.60
2022-10-11T06:11:25.821Z,9.32
2022-10-11T06:14:00.485Z,9.45
2022-10-11T06:16:27.423Z,9.40
2022-10-11T06:18:55.089Z,9.63
2022-10-11T06:21:22.305Z,9.20
2022-10-11T06:23:56.835Z,9.23
2022-10-11T06:26:26.639Z,10.02
2022-10-11T06:28:53.375Z,9.25
2022-10-11T06:31:19.953Z,8.82
2022-10-11T06:33:46.551Z,9.65
2022-10-11T06:36:14.649Z,9.18
2022-10-11T06:38:44.911Z,9.40
2022-10-11T06:41:15.998Z,9.02
2022-10-11T06:43:44.446Z,8.18
2022-10-11T06:46:11.890Z,8.82
2022-10-11T06:48:46.386Z,8.85
2022-10-11T06:51:14.822Z,10.93
2022-10-11T06:53:41.912Z,14.35
2022-10-11T06:56:10.794Z,9.43
2022-10-11T06:58:38.823Z,8.95
2022-10-11T07:01:13.244Z,9.85
2022-10-11T07:03:40.135Z,9.27
2022-10-11T07:06:09.962Z,8.40
2022-10-11T07:08:38.134Z,8.75
2022-10-11T07:11:12.421Z,9.15
2022-10-11T07:13:39.879Z,9.38
2022-10-11T07:16:09.503Z,9.27
2022-10-11T07:18:36.600Z,8.63
2022-10-11T07:21:05.428Z,7.85
2022-10-11T07:23:32.136Z,9.13
2022-10-11T07:25:58.696Z,8.52
2022-10-11T07:28:25.885Z,9.57
2022-10-11T07:30:52.744Z,9.50
2022-10-11T07:33:19.449Z,9.38
2022-10-11T07:35:48.616Z,9.25
2022-10-11T07:38:15.946Z,8.90
2022-10-11T07:40:44.539Z,8.63
2022-10-11T07:43:12.385Z,7.82
2022-10-11T07:45:40.460Z,8.77
2022-10-11T07:48:07.505Z,8.15
2022-10-11T07:50:35.022Z,8.88
2022-10-11T07:53:01.565Z,8.60
2022-10-11T07:55:35.541Z,8.05
2022-10-11T07:58:02.055Z,7.25
2022-10-11T08:00:28.798Z,8.18
2022-10-11T08:02:55.341Z,8.55
2022-10-11T08:05:21.852Z,7.78
2022-10-11T08:07:48.897Z,7.93
2022-10-11T08:10:15.621Z,9.07
2022-10-11T08:12:42.117Z,8.90
2022-10-11T08:15:08.987Z,8.48
2022-10-11T08:17:35.591Z,7.90
2022-10-11T08:20:02.126Z,7.93
2022-10-11T08:22:28.721Z,6.97
2022-10-11T08:24:55.405Z,8.00
2022-10-11T08:27:21.995Z,7.35
2022-10-11T08:29:48.578Z,6.95
2022-10-11T08:32:15.180Z,8.27
2022-10-11T08:34:41.956Z,6.80
2022-10-11T08:37:08.624Z,8.10
2022-10-11T08:39:35.154Z,7.03
2022-10-11T08:42:32.272Z,7.10
2022-10-11T08:45:10.943Z,6.72
2022-10-11T08:47:43.082Z,7.10
2022-10-11T08:50:19.840Z,7.50
2022-10-11T08:52:56.856Z,6.85
2022-10-11T08:55:37.891Z,6.78
2022-10-11T08:58:04.556Z,5.50
2022-10-11T09:00:35.415Z,5.30
2022-10-11T09:03:21.726Z,5.00
2022-10-11T09:06:25.488Z,5.75
2022-10-11T09:08:57.811Z,4.70
2022-10-11T09:11:39.533Z,5.90
2022-10-11T09:14:24.876Z,5.50
2022-10-11T09:17:24.034Z,6.45
2022-10-11T09:20:23.609Z,5.50
2022-10-11T09:23:04.809Z,5.90
2022-10-11T09:25:53.479Z,5.35
2022-10-11T09:28:57.407Z,5.38
2022-10-11T09:31:28.368Z,5.93
2022-10-11T09:33:56.071Z,6.07
2022-10-11T09:36:34.098Z,6.90
2022-10-11T09:39:22.165Z,6.38
2022-10-11T09:42:08.967Z,6.10
2022-10-11T09:44:39.001Z,6.75
2022-10-11T09:47:06.563Z,6.85
2022-10-11T09:49:42.747Z,7.60
2022-10-11T09:52:16.748Z,6.85
2022-10-11T09:54:49.615Z,11.27
2022-10-11T09:57:24.991Z,8.85
2022-10-11T09:59:59.888Z,8.48
2022-10-11T10:02:31.010Z,7.82
2022-10-11T10:05:25.790Z,8.23
2022-10-11T10:08:04.989Z,9.05
2022-10-11T10:10:44.252Z,8.80
2022-10-11T10:13:23.317Z,9.27
2022-10-11T10:15:53.618Z,10.30
2022-10-11T10:18:35.781Z,8.70
2022-10-11T10:21:04.459Z,8.95
2022-10-11T10:23:36.776Z,8.25
2022-10-11T10:26:17.345Z,7.95
2022-10-11T10:29:02.885Z,8.70
2022-10-11T10:31:54.907Z,9.95
2022-10-11T10:34:29.830Z,12.02
2022-10-11T10:37:02.506Z,11.95
2022-10-11T10:39:47.165Z,10.37
2022-10-11T10:42:19.394Z,9.32
2022-10-11T10:44:53.848Z,9.35
2022-10-11T10:47:46.674Z,9.70
2022-10-11T10:50:16.191Z,10.05
2022-10-11T10:52:47.228Z,9.88
2022-10-11T10:55:31.603Z,9.60
2022-10-11T10:58:22.304Z,10.65
2022-10-11T11:00:52.010Z,9.73
2022-10-11T11:03:27.893Z,9.60
2022-10-11T11:06:07.785Z,9.73
2022-10-11T11:08:49.868Z,9.57
2022-10-11T11:11:38.422Z,9.25
2022-10-11T11:14:28.918Z,14.48
2022-10-11T11:17:15.770Z,9.27
2022-10-11T11:19:57.246Z,9.73
2022-10-11T11:22:40.472Z,8.55
2022-10-11T11:25:49.612Z,8.93
2022-10-11T11:28:51.688Z,8.73
2022-10-11T11:31:36.735Z,18.33
2022-10-11T11:34:12.420Z,10.07
2022-10-11T11:36:55.082Z,8.32
2022-10-11T11:39:43.994Z,8.57
2022-10-11T11:42:23.843Z,8.13
2022-10-11T11:44:51.543Z,8.27
2022-10-11T11:47:31.396Z,8.20
2022-10-11T11:50:22.458Z,6.68
2022-10-11T11:52:55.781Z,6.70
2022-10-11T11:55:38.641Z,6.50
2022-10-11T11:58:08.274Z,5.25
2022-10-11T12:01:12.617Z,5.63
2022-10-11T12:03:43.176Z,6.13
2022-10-11T12:06:30.365Z,5.60
2022-10-11T12:09:27.013Z,5.90
2022-10-11T12:12:08.420Z,5.15
2022-10-11T12:14:38.853Z,5.90
2022-10-11T12:17:11.010Z,5.32
2022-10-11T12:19:39.955Z,5.20
2022-10-11T12:22:28.277Z,5.70
2022-10-11T12:25:00.988Z,5.10
2022-10-11T12:27:48.427Z,5.07
2022-10-11T12:30:42.744Z,5.45
2022-10-11T12:33:16.908Z,5.13
2022-10-11T12:35:57.574Z,4.88
2022-10-11T12:38:40.210Z,5.50
2022-10-11T12:41:09.720Z,5.07
2022-10-11T12:44:02.022Z,5.45
2022-10-11T12:46:28.794Z,4.53
2022-10-11T12:49:04.749Z,4.30
2022-10-11T12:51:50.240Z,4.30
2022-10-11T12:54:43.664Z,3.97
2022-10-11T12:57:46.497Z,3.50
2022-10-11T13:00:33.809Z,3.70
2022-10-11T13:03:28.447Z,3.85
2022-10-11T13:06:01.699Z,3.63
2022-10-11T13:08:35.825Z,3.80
2022-10-11T13:11:06.631Z,15.77
2022-10-11T13:13:39.852Z,4.60
2022-10-11T13:16:14.911Z,3.92
2022-10-11T13:18:44.343Z,3.40
2022-10-11T13:21:29.968Z,3.72
2022-10-11T13:24:03.414Z,3.65
2022-10-11T13:26:31.800Z,2.95
2022-10-11T13:29:00.257Z,3.80
2022-10-11T13:31:27.787Z,3.85
2022-10-11T13:33:57.037Z,3.08
2022-10-11T13:36:27.338Z,3.10
2022-10-11T13:39:00.147Z,3.65
2022-10-11T13:41:29.700Z,4.38
2022-10-11T13:43:58.323Z,4.53
2022-10-11T13:46:27.061Z,4.50
2022-10-11T13:49:00.104Z,3.25
2022-10-11T13:51:30.344Z,3.10
2022-10-11T13:54:07.190Z,3.35
2022-10-11T13:56:44.338Z,3.05
2022-10-11T13:59:23.838Z,3.28
2022-10-11T14:01:58.862Z,2.90
2022-10-11T14:04:29.464Z,2.60
2022-10-11T14:07:02.646Z,3.30
2022-10-11T14:09:33.838Z,2.40
2022-10-11T14:12:32.843Z,2.90
2022-10-11T14:15:01.104Z,2.95
2022-10-11T14:17:43.790Z,2.97
2022-10-11T14:20:39.453Z,21.33
2022-10-11T14:23:06.801Z,3.97
2022-10-11T14:25:34.209Z,3.15
2022-10-11T14:28:01.226Z,3.88
2022-10-11T14:30:28.659Z,3.50
2022-10-11T14:32:59.477Z,4.05
2022-10-11T14:35:28.930Z,3.10
2022-10-11T14:37:55.897Z,2.58
2022-10-11T14:40:25.493Z,2.63
2022-10-11T14:42:52.504Z,2.42
2022-10-11T14:45:21.371Z,2.30
2022-10-11T14:47:48.845Z,2.20
2022-10-11T14:50:42.780Z,2.35
2022-10-11T14:53:11.584Z,2.58
2022-10-11T14:55:39.721Z,2.83
2022-10-11T14:58:07.881Z,2.78
2022-10-11T15:00:35.832Z,4.28
2022-10-11T15:03:03.940Z,3.00
2022-10-11T15:05:33.969Z,2.20
2022-10-11T15:08:02.110Z,2.08
2022-10-11T15:10:34.693Z,2.10
2022-10-11T15:13:02.735Z,2.17
2022-10-11T15:15:32.834Z,2.20
2022-10-11T15:18:01.992Z,2.10
2022-10-11T15:20:31.533Z,2.97
2022-10-11T15:22:59.041Z,2.20
2022-10-11T15:25:27.541Z,2.72
2022-10-11T15:27:54.117Z,2.97
2022-10-11T15:30:27.380Z,3.30
2022-10-11T15:32:54.255Z,2.30
2022-10-11T15:35:22.835Z,2.20
2022-10-11T15:37:53.444Z,2.83
2022-10-11T15:40:25.976Z,2.25
2022-10-11T15:42:54.313Z,3.92
2022-10-11T15:45:22.678Z,3.20
2022-10-11T15:47:50.038Z,3.08
2022-10-11T15:50:34.930Z,2.38
2022-10-11T15:53:06.021Z,2.67
2022-10-11T15:55:34.854Z,2.50
2022-10-11T15:58:02.119Z,2.10
2022-10-11T16:00:29.985Z,6.38
2022-10-11T16:02:58.077Z,5.22
2022-10-11T16:05:26.973Z,4.47
2022-10-11T16:07:54.335Z,3.35
2022-10-11T16:10:21.033Z,2.85
2022-10-11T16:12:47.744Z,2.20
2022-10-11T16:15:15.474Z,2.42
2022-10-11T16:17:42.299Z,3.10
2022-10-11T16:20:09.379Z,9.63
2022-10-11T16:22:36.224Z,7.38
2022-10-11T16:25:04.014Z,5.95
2022-10-11T16:27:31.162Z,4.78
2022-10-11T16:29:58.421Z,2.83
2022-10-11T16:32:25.524Z,2.38
2022-10-11T16:34:52.033Z,2.00
2022-10-11T16:37:19.068Z,2.70
2022-10-11T16:39:46.566Z,3.67
2022-10-11T16:42:13.275Z,3.75
2022-10-11T16:44:40.126Z,4.05
2022-10-11T16:47:07.304Z,5.35
2022-10-11T16:49:34.317Z,8.02
2022-10-11T16:52:04.803Z,10.82
2022-10-11T16:54:31.938Z,23.73
2022-10-11T16:57:00.663Z,44.33
2022-10-11T16:59:27.777Z,51.03
2022-10-11T17:01:55.236Z,57.13
2022-10-11T17:04:22.319Z,96.80
2022-10-11T17:06:49.814Z,92.90
2022-10-11T17:09:16.680Z,54.45
2022-10-11T17:11:44.156Z,9.55
2022-10-11T17:14:12.293Z,4.00
2022-10-11T17:16:39.298Z,5.32
2022-10-11T17:19:10.038Z,7.55
2022-10-11T17:21:36.673Z,5.82
2022-10-11T17:24:03.785Z,8.10
2022-10-11T17:26:30.460Z,13.27
2022-10-11T17:28:58.727Z,9.60
2022-10-11T17:31:26.524Z,8.48
2022-10-11T17:33:54.826Z,10.50
2022-10-11T17:36:24.511Z,11.10
2022-10-11T17:38:51.749Z,16.42
2022-10-11T17:41:20.303Z,48.92
2022-10-11T17:43:47.670Z,72.38
2022-10-11T17:46:16.028Z,79.38
2022-10-11T17:48:44.626Z,52.05
2022-10-11T17:51:20.791Z,35.00
2022-10-11T17:53:48.228Z,44.97
2022-10-11T17:56:17.114Z,11.50
2022-10-11T17:58:44.146Z,4.72
2022-10-11T18:01:14.120Z,4.38
2022-10-11T18:03:41.939Z,4.57
2022-10-11T18:06:11.450Z,5.95
2022-10-11T18:08:40.606Z,4.32
2022-10-11T18:11:17.317Z,7.40
2022-10-11T18:13:46.549Z,8.32
2022-10-11T18:16:15.149Z,6.78
2022-10-11T18:18:42.461Z,4.22
2022-10-11T18:21:09.726Z,3.90
2022-10-11T18:23:38.287Z,6.60
2022-10-11T18:26:15.775Z,8.57
2022-10-11T18:28:44.049Z,12.27
2022-10-11T18:31:14.877Z,11.32
2022-10-11T18:33:42.564Z,10.65
2022-10-11T18:36:11.080Z,24.80
2022-10-11T18:38:39.156Z,27.23
2022-10-11T18:41:08.088Z,21.58
2022-10-11T18:43:35.295Z,14.85
2022-10-11T18:46:07.142Z,11.35
2022-10-11T18:48:34.450Z,12.63
2022-10-11T18:51:06.688Z,11.23
2022-10-11T18:53:35.344Z,12.90
2022-10-11T18:56:04.397Z,12.23
2022-10-11T18:58:32.635Z,10.57
2022-10-11T19:01:08.655Z,10.35
2022-10-11T19:03:36.138Z,8.35
2022-10-11T19:06:09.500Z,6.90
2022-10-11T19:08:36.240Z,6.45
2022-10-11T19:11:07.684Z,5.75
2022-10-11T19:13:35.350Z,5.80
2022-10-11T19:16:16.414Z,5.47
2022-10-11T19:18:44.525Z,4.10
2022-10-11T19:21:13.413Z,6.22
2022-10-11T19:23:45.103Z,5.65
2022-10-11T19:26:16.038Z,4.85
2022-10-11T19:28:43.302Z,4.20
2022-10-11T19:31:13.017Z,5.65
2022-10-11T19:33:39.733Z,11.07
2022-10-11T19:36:07.001Z,19.40
2022-10-11T19:38:35.238Z,19.48
2022-10-11T19:41:03.070Z,9.48
2022-10-11T19:43:29.911Z,6.20
2022-10-11T19:46:05.005Z,5.00
2022-10-11T19:48:31.927Z,5.05
2022-10-11T19:51:23.221Z,5.32
2022-10-11T19:53:58.652Z,6.65
2022-10-11T19:56:26.768Z,6.13
2022-10-11T19:58:53.973Z,7.20
2022-10-11T20:01:28.200Z,7.72
2022-10-11T20:03:59.799Z,7.35
2022-10-11T20:06:28.339Z,6.60
2022-10-11T20:09:16.605Z,7.03
2022-10-11T20:11:42.532Z,7.25
2022-10-11T20:14:09.450Z,6.93
2022-10-11T20:16:36.196Z,9.02
2022-10-11T20:19:02.889Z,11.98
2022-10-11T20:21:30.800Z,10.38
2022-10-11T20:24:02.184Z,8.75
2022-10-11T20:26:30.009Z,7.70
2022-10-11T20:28:57.935Z,6.90
2022-10-11T20:31:31.193Z,7.60
2022-10-11T20:34:01.812Z,4.55
2022-10-11T20:36:30.263Z,7.07
2022-10-11T20:38:58.162Z,5.97
2022-10-11T20:41:31.668Z,6.47
2022-10-11T20:43:59.486Z,7.15
2022-10-11T20:46:28.149Z,6.93
2022-10-11T20:49:01.588Z,8.05
2022-10-11T20:51:30.862Z,7.53
2022-10-11T20:53:58.735Z,7.78
2022-10-11T20:56:25.973Z,11.80
2022-10-11T20:58:54.555Z,15.75
2022-10-11T21:01:23.713Z,12.48
2022-10-11T21:03:50.675Z,14.45
2022-10-11T21:06:17.279Z,13.63
2022-10-11T21:08:44.376Z,12.93
2022-10-11T21:11:11.644Z,10.57
2022-10-11T21:13:38.470Z,9.85
2022-10-11T21:16:11.995Z,10.65
2022-10-11T21:18:39.090Z,12.68
2022-10-11T21:21:11.570Z,11.13
2022-10-11T21:23:38.664Z,10.40
2022-10-11T21:26:07.979Z,9.25
2022-10-11T21:28:34.738Z,9.45
2022-10-11T21:31:09.943Z,9.18
2022-10-11T21:33:37.220Z,9.13
2022-10-11T21:36:09.574Z,9.45
2022-10-11T21:38:37.048Z,7.75
2022-10-11T21:41:12.253Z,6.72
2022-10-11T21:43:39.335Z,7.57
2022-10-11T21:46:17.243Z,8.55
2022-10-11T21:48:43.971Z,7.93
2022-10-11T21:51:15.718Z,5.82
2022-10-11T21:53:42.425Z,6.40
2022-10-11T21:56:08.990Z,6.78
2022-10-11T21:58:35.482Z,7.25
2022-10-11T22:01:02.081Z,5.57
2022-10-11T22:03:28.656Z,5.50
2022-10-11T22:05:55.219Z,6.45
2022-10-11T22:08:21.844Z,6.35
2022-10-11T22:10:57.192Z,7.38
2022-10-11T22:13:25.062Z,6.30
2022-10-11T22:15:51.741Z,5.05
2022-10-11T22:18:18.382Z,5.90
2022-10-11T22:20:45.448Z,5.22
2022-10-11T22:23:12.110Z,9.00
2022-10-11T22:25:39.725Z,7.90
2022-10-11T22:28:07.704Z,7.70
2022-10-11T22:30:34.826Z,9.57
2022-10-11T22:33:01.419Z,9.63
2022-10-11T22:35:28.060Z,9.45
2022-10-11T22:37:54.581Z,10.40
2022-10-11T22:40:21.211Z,10.05
2022-10-11T22:42:48.047Z,9.20
2022-10-11T22:45:14.604Z,10.10
2022-10-11T22:47:41.203Z,8.20
2022-10-11T22:50:08.411Z,8.30
2022-10-11T22:52:35.387Z,7.47
2022-10-11T22:55:02.010Z,8.85
2022-10-11T22:57:28.602Z,6.25
2022-10-11T22:59:55.104Z,6.90
2022-10-11T23:02:21.682Z,7.43
2022-10-11T23:04:48.289Z,7.95
2022-10-11T23:07:14.910Z,6.35
2022-10-11T23:09:41.442Z,6.22
2022-10-11T23:12:08.095Z,6.00
2022-10-11T23:14:34.616Z,6.78
2022-10-11T23:17:01.125Z,6.75
2022-10-11T23:19:27.760Z,7.20
2022-10-11T23:21:54.447Z,6.70
2022-10-11T23:24:21.008Z,6.60
2022-10-11T23:26:47.573Z,6.43
2022-10-11T23:29:14.140Z,5.30
2022-10-11T23:31:40.646Z,6.90
2022-10-11T23:34:07.177Z,6.40
2022-10-11T23:36:33.700Z,5.40
2022-10-11T23:39:00.278Z,5.70
2022-10-11T23:41:29.123Z,6.00
2022-10-11T23:43:56.216Z,5.00
2022-10-11T23:46:23.077Z,5.72
2022-10-11T23:48:49.733Z,6.25
2022-10-11T23:51:16.367Z,7.53
2022-10-11T23:53:42.926Z,6.00
2022-10-11T23:56:10.764Z,7.00
2022-10-11T23:58:37.598Z,6.30
